Time;durP1;ratioP1;P1;durP2;ratioP2;P2;SDS_P1;SDS_P2;PMS_P1;PMS_P2;Temp;Humidity;BMP_temperature;BMP_pressure;BME280_temperature;BME280_humidity;BME280_pressure;Samples;Min_cycle;Max_cycle;Signal;HPM_P1;HPM_P2
2022/11/28 00:00:52;;;;;;;23.30;16.35;;;6.20;98.10;;;;;;4995873;28;20480;-81
2022/11/28 00:03:18;;;;;;;22.98;16.70;;;6.10;98.20;;;;;;4995659;28;20049;-81
2022/11/28 00:05:43;;;;;;;19.05;15.05;;;6.10;98.20;;;;;;4979384;28;20074;-81
2022/11/28 00:08:09;;;;;;;25.00;16.75;;;6.10;98.20;;;;;;4979297;28;20137;-81
2022/11/28 00:10:39;;;;;;;26.25;17.65;;;6.20;98.10;;;;;;4995617;28;20560;-80
2022/11/28 00:13:05;;;;;;;23.05;18.83;;;6.20;98.10;;;;;;4995380;28;20575;-80
2022/11/28 00:15:30;;;;;;;23.60;17.75;;;6.10;98.10;;;;;;4979175;28;20042;-81
2022/11/28 00:17:56;;;;;;;23.98;16.65;;;6.20;98.20;;;;;;4979211;28;20050;-80
2022/11/28 00:20:22;;;;;;;24.58;18.02;;;6.10;98.20;;;;;;4979396;28;20054;-81
2022/11/28 00:22:47;;;;;;;26.85;18.60;;;6.20;98.10;;;;;;4979023;28;20045;-80
2022/11/28 00:25:13;;;;;;;25.92;18.10;;;6.20;98.20;;;;;;4995292;28;20089;-81
2022/11/28 00:27:39;;;;;;;23.77;17.70;;;6.20;98.10;;;;;;4978932;28;20038;-81
2022/11/28 00:30:05;;;;;;;24.95;18.23;;;6.20;98.10;;;;;;4979003;28;20041;-81
2022/11/28 00:32:31;;;;;;;26.27;18.40;;;6.20;98.10;;;;;;4995003;28;20042;-80
2022/11/28 00:34:56;;;;;;;28.90;18.13;;;6.20;98.20;;;;;;4995067;28;20096;-81
2022/11/28 00:37:22;;;;;;;25.48;19.30;;;6.20;98.20;;;;;;4978916;28;20046;-81
2022/11/28 00:39:48;;;;;;;28.45;19.85;;;6.20;98.20;;;;;;4978838;28;20101;-81
2022/11/28 00:42:15;;;;;;;28.95;20.02;;;6.20;98.20;;;;;;4994835;28;20046;-81
2022/11/28 00:44:41;;;;;;;28.50;20.73;;;6.20;98.20;;;;;;4979019;28;20042;-81
2022/11/28 00:47:06;;;;;;;30.33;22.13;;;6.20;98.20;;;;;;4978685;28;20121;-80
2022/11/28 00:49:32;;;;;;;33.67;23.75;;;6.20;98.20;;;;;;4978620;28;20468;-80
2022/11/28 00:51:58;;;;;;;41.67;26.20;;;6.20;98.20;;;;;;4978785;28;20097;-81
2022/11/28 00:54:23;;;;;;;32.25;22.15;;;6.20;98.20;;;;;;4978514;28;20129;-80
2022/11/28 00:56:49;;;;;;;41.40;26.08;;;6.20;98.20;;;;;;4978779;28;20081;-81
2022/11/28 00:59:15;;;;;;;37.42;25.20;;;6.20;98.30;;;;;;4962568;28;20053;-80
2022/11/28 01:01:42;;;;;;;75.72;41.60;;;6.20;98.30;;;;;;4977601;28;20045;-81
2022/11/28 01:04:12;;;;;;;78.35;42.22;;;6.10;98.30;;;;;;4994806;28;20038;-81
2022/11/28 01:06:48;;;;;;;39.63;24.88;;;6.10;98.30;;;;;;4994532;28;20371;-81
2022/11/28 01:09:17;;;;;;;73.35;40.75;;;6.10;98.20;;;;;;4994274;28;20054;-81
2022/11/28 01:11:44;;;;;;;52.05;29.02;;;6.10;98.30;;;;;;4994633;28;20417;-81
2022/11/28 01:14:11;;;;;;;67.93;38.80;;;6.10;98.30;;;;;;4978257;28;20096;-80
2022/11/28 01:16:37;;;;;;;43.53;27.02;;;6.10;98.30;;;;;;4994472;28;20046;-80
2022/11/28 01:19:04;;;;;;;67.00;38.20;;;6.10;98.30;;;;;;4994168;28;20181;-80
2022/11/28 01:21:29;;;;;;;37.35;25.75;;;6.10;98.30;;;;;;4994110;28;20038;-79
2022/11/28 01:23:55;;;;;;;31.70;22.08;;;6.10;98.30;;;;;;4978004;28;20050;-80
2022/11/28 01:26:24;;;;;;;30.73;22.33;;;6.10;98.40;;;;;;4977861;28;20045;-80
2022/11/28 01:28:50;;;;;;;29.48;19.42;;;6.10;98.30;;;;;;4994009;28;20042;-80
2022/11/28 01:31:19;;;;;;;40.60;25.25;;;6.10;98.30;;;;;;4994102;28;20129;-81
2022/11/28 01:33:45;;;;;;;30.35;22.90;;;6.10;98.30;;;;;;4994168;28;20061;-80
2022/11/28 01:36:12;;;;;;;36.03;26.80;;;6.10;98.40;;;;;;4977754;28;20042;-81
2022/11/28 01:38:37;;;;;;;31.42;23.30;;;6.10;98.50;;;;;;4977741;28;20085;-80
2022/11/28 01:41:04;;;;;;;37.10;25.15;;;6.10;98.50;;;;;;4994092;28;20089;-80
2022/11/28 01:43:29;;;;;;;30.80;21.52;;;6.10;98.60;;;;;;4977556;28;20038;-80
2022/11/28 01:45:56;;;;;;;32.95;22.95;;;6.10;98.60;;;;;;4993679;28;20064;-80
2022/11/28 01:48:33;;;;;;;33.70;21.77;;;6.10;98.60;;;;;;4993616;28;20042;-80
2022/11/28 01:51:04;;;;;;;27.08;19.42;;;6.10;98.60;;;;;;4993959;28;20486;-81
2022/11/28 01:53:31;;;;;;;28.52;20.60;;;6.10;98.60;;;;;;4993632;28;20043;-81
2022/11/28 01:56:03;;;;;;;26.63;19.33;;;6.10;98.70;;;;;;4993786;28;20390;-80
2022/11/28 01:58:30;;;;;;;31.40;21.08;;;6.10;98.60;;;;;;4993579;28;20038;-80
2022/11/28 02:00:56;;;;;;;32.40;21.20;;;6.10;98.50;;;;;;4993571;28;20034;-80
2022/11/28 02:03:51;;;;;;;29.40;21.83;;;6.10;98.60;;;;;;4993660;28;20454;-80
2022/11/28 02:06:21;;;;;;;34.47;22.42;;;6.10;98.60;;;;;;4991318;28;20047;-80
2022/11/28 02:08:53;;;;;;;113.97;72.80;;;6.10;98.60;;;;;;4993105;28;20062;-80
2022/11/28 02:11:33;;;;;;;58.20;38.88;;;6.10;98.60;;;;;;4993141;28;20049;-80
2022/11/28 02:14:14;;;;;;;78.78;50.03;;;6.10;98.60;;;;;;4993208;28;20042;-80
2022/11/28 02:17:06;;;;;;;74.30;47.33;;;6.10;98.60;;;;;;4993131;28;20516;-80
2022/11/28 02:20:10;;;;;;;38.47;27.90;;;6.20;98.60;;;;;;4956960;28;20100;-80
2022/11/28 02:22:45;;;;;;;41.75;30.00;;;6.20;98.70;;;;;;4993041;28;20042;-81
2022/11/28 02:25:35;;;;;;;38.03;27.35;;;6.20;98.60;;;;;;4976778;28;20039;-81
2022/11/28 02:28:13;;;;;;;41.08;26.77;;;6.20;98.70;;;;;;4976652;28;20046;-80
2022/11/28 02:31:07;;;;;;;60.10;35.10;;;6.20;98.80;;;;;;4992898;28;20049;-80
2022/11/28 02:33:37;;;;;;;76.75;42.60;;;6.20;98.70;;;;;;4993101;28;20144;-80
2022/11/28 02:36:34;;;;;;;58.72;34.88;;;6.20;98.80;;;;;;4992660;28;20053;-81
2022/11/28 02:39:03;;;;;;;51.58;31.02;;;6.30;98.80;;;;;;4987426;28;20050;-80
2022/11/28 02:41:53;;;;;;;37.17;26.95;;;6.20;98.90;;;;;;4976686;28;20393;-80
2022/11/28 02:44:24;;;;;;;49.25;31.38;;;6.30;98.80;;;;;;4992789;28;20038;-81
2022/11/28 02:47:31;;;;;;;54.42;34.60;;;6.30;98.80;;;;;;4992616;28;20042;-81
2022/11/28 02:50:33;;;;;;;51.22;31.75;;;6.30;98.90;;;;;;4933915;29;20401;-80
2022/11/28 02:53:05;;;;;;;119.35;50.92;;;6.30;98.90;;;;;;4917940;29;20466;-81
2022/11/28 02:55:31;;;;;;;155.80;59.05;;;6.40;98.90;;;;;;4974753;28;20493;-81
2022/11/28 02:57:57;;;;;;;137.38;57.30;;;6.40;98.90;;;;;;4976434;28;20043;-80
2022/11/28 03:00:35;;;;;;;116.30;55.72;;;6.40;98.90;;;;;;4976342;28;20053;-80
2022/11/28 03:03:35;;;;;;;97.68;47.35;;;6.40;98.80;;;;;;4992370;28;20046;-80
2022/11/28 03:06:30;;;;;;;54.83;32.08;;;6.40;98.80;;;;;;4992375;28;20478;-80
2022/11/28 03:09:01;;;;;;;64.13;34.70;;;6.50;98.90;;;;;;4988203;28;20082;-80
2022/11/28 03:11:37;;;;;;;40.97;26.42;;;6.50;98.90;;;;;;4992473;28;20082;-80
2022/11/28 03:14:16;;;;;;;35.15;24.98;;;6.50;98.80;;;;;;4992421;28;20046;-80
2022/11/28 03:16:57;;;;;;;41.97;28.05;;;6.50;98.90;;;;;;4992310;28;20054;-81
2022/11/28 03:19:35;;;;;;;38.55;27.85;;;6.50;99.00;;;;;;4992350;28;20089;-80
2022/11/28 03:22:23;;;;;;;39.15;26.70;;;6.50;98.90;;;;;;4992231;28;20506;-81
2022/11/28 03:25:27;;;;;;;39.10;26.85;;;6.60;98.90;;;;;;4978520;28;20041;-81
2022/11/28 03:27:58;;;;;;;36.57;25.70;;;6.50;98.90;;;;;;4980014;28;20084;-81
2022/11/28 03:30:45;;;;;;;37.75;27.02;;;6.60;99.00;;;;;;4980258;28;20096;-81
2022/11/28 03:33:14;;;;;;;34.47;23.60;;;6.50;98.90;;;;;;4996459;28;20084;-81
2022/11/28 03:35:47;;;;;;;36.70;26.65;;;6.60;98.90;;;;;;4979904;28;20084;-80
2022/11/28 03:38:27;;;;;;;36.95;24.13;;;6.60;99.00;;;;;;4996134;28;20046;-80
2022/11/28 03:40:57;;;;;;;35.45;24.17;;;6.50;98.90;;;;;;4996083;28;20169;-81
2022/11/28 03:43:36;;;;;;;35.33;24.88;;;6.60;98.90;;;;;;4996064;28;20042;-81
2022/11/28 03:46:07;;;;;;;33.58;23.38;;;6.60;99.00;;;;;;4995966;28;20068;-80
2022/11/28 03:48:38;;;;;;;33.75;23.70;;;6.60;98.90;;;;;;4995957;28;20092;-81
2022/11/28 03:51:20;;;;;;;35.45;23.65;;;6.60;99.00;;;;;;4995869;28;20478;-80
2022/11/28 03:54:09;;;;;;;34.92;24.02;;;6.60;99.00;;;;;;4995932;28;20039;-81
2022/11/28 03:56:50;;;;;;;33.80;23.15;;;6.60;99.10;;;;;;4995764;28;20101;-81
2022/11/28 03:59:37;;;;;;;32.78;23.45;;;6.60;99.00;;;;;;4995757;28;20043;-81
2022/11/28 04:02:05;;;;;;;29.80;21.60;;;6.60;99.10;;;;;;4995631;28;20043;-81
2022/11/28 04:04:56;;;;;;;33.17;21.95;;;6.60;99.10;;;;;;4995917;28;20045;-80
2022/11/28 04:07:36;;;;;;;31.65;21.65;;;6.60;99.10;;;;;;4995719;28;20117;-81
2022/11/28 04:10:14;;;;;;;30.13;20.95;;;6.60;99.10;;;;;;4979141;28;20506;-81
2022/11/28 04:13:00;;;;;;;27.73;19.77;;;6.70;99.20;;;;;;4995607;28;20042;-81
2022/11/28 04:15:29;;;;;;;29.60;21.23;;;6.70;99.20;;;;;;4995584;28;20046;-80
2022/11/28 04:18:09;;;;;;;27.75;20.63;;;6.70;99.20;;;;;;4979434;28;20042;-80
2022/11/28 04:20:40;;;;;;;33.38;20.27;;;6.70;99.20;;;;;;4995320;28;20046;-81
2022/11/28 04:23:11;;;;;;;32.05;20.58;;;6.80;99.20;;;;;;4995261;28;20483;-80
2022/11/28 04:25:40;;;;;;;27.05;19.20;;;6.80;99.10;;;;;;4995503;28;20394;-81
2022/11/28 04:28:11;;;;;;;27.58;20.02;;;6.80;99.20;;;;;;4995221;28;20109;-80
2022/11/28 04:30:39;;;;;;;29.50;19.13;;;6.80;99.10;;;;;;4995260;28;20509;-81
2022/11/28 04:33:08;;;;;;;29.48;20.20;;;6.80;99.20;;;;;;4995380;28;20088;-81
2022/11/28 04:35:41;;;;;;;26.40;18.98;;;6.80;99.20;;;;;;4977530;28;20154;-81
2022/11/28 04:38:10;;;;;;;27.85;20.38;;;6.80;99.20;;;;;;4995337;28;20042;-81
2022/11/28 04:41:11;;;;;;;27.77;20.02;;;6.80;99.20;;;;;;4995027;28;20105;-81
2022/11/28 04:43:48;;;;;;;28.33;19.55;;;6.90;99.30;;;;;;4994947;28;20046;-81
2022/11/28 04:46:25;;;;;;;25.95;18.98;;;6.80;99.20;;;;;;4994865;28;20478;-81
2022/11/28 04:48:51;;;;;;;25.90;19.45;;;6.90;99.20;;;;;;4994888;28;20066;-81
2022/11/28 04:51:33;;;;;;;26.45;18.70;;;6.90;99.10;;;;;;4979104;28;20046;-81
2022/11/28 04:54:09;;;;;;;26.98;18.90;;;6.90;99.20;;;;;;4994961;28;20074;-81
2022/11/28 04:57:21;;;;;;;29.20;20.17;;;6.90;99.10;;;;;;4978697;28;20482;-81
2022/11/28 04:59:48;;;;;;;29.25;20.60;;;6.90;99.20;;;;;;4986585;28;20560;-81
2022/11/28 05:02:16;;;;;;;28.10;19.90;;;7.00;99.30;;;;;;4994565;28;20038;-81
2022/11/28 05:04:43;;;;;;;32.35;21.50;;;7.00;99.30;;;;;;4994597;28;20096;-81
2022/11/28 05:07:09;;;;;;;28.20;19.80;;;7.00;99.30;;;;;;4994378;28;20046;-81
2022/11/28 05:09:35;;;;;;;29.88;20.67;;;7.00;99.30;;;;;;4986572;28;20057;-81
2022/11/28 05:12:02;;;;;;;25.88;18.67;;;7.00;99.30;;;;;;4975045;28;20043;-81
2022/11/28 05:14:27;;;;;;;26.45;19.65;;;7.00;99.30;;;;;;4975134;28;20038;-81
2022/11/28 05:16:53;;;;;;;28.58;19.50;;;7.00;99.30;;;;;;4958717;28;20606;-81
2022/11/28 05:19:19;;;;;;;31.60;20.42;;;7.10;99.40;;;;;;4958740;28;20046;-81
2022/11/28 05:21:44;;;;;;;28.52;19.85;;;7.10;99.40;;;;;;4942879;28;20043;-81
2022/11/28 05:24:10;;;;;;;28.88;20.05;;;7.10;99.30;;;;;;4942715;28;20121;-81
2022/11/28 05:26:37;;;;;;;25.95;19.08;;;7.10;99.30;;;;;;4974986;28;20376;-81
2022/11/28 05:29:04;;;;;;;27.27;19.65;;;7.10;99.40;;;;;;4974883;28;20042;-81
2022/11/28 05:31:30;;;;;;;25.90;17.92;;;7.10;99.40;;;;;;4958661;28;20054;-81
2022/11/28 05:33:56;;;;;;;26.52;18.77;;;7.10;99.30;;;;;;4942473;28;20038;-81
2022/11/28 05:36:22;;;;;;;27.63;18.50;;;7.10;99.30;;;;;;4974439;28;20058;-81
2022/11/28 05:38:48;;;;;;;29.27;19.55;;;7.10;99.30;;;;;;4958677;28;20054;-80
2022/11/28 05:41:32;;;;;;;27.08;19.20;;;7.20;99.30;;;;;;4974297;28;20046;-81
2022/11/28 05:43:59;;;;;;;27.55;19.42;;;7.10;99.20;;;;;;4958226;28;20039;-81
2022/11/28 05:46:25;;;;;;;25.90;19.00;;;7.20;99.30;;;;;;4974014;28;20070;-81
2022/11/28 05:48:51;;;;;;;24.35;17.75;;;7.20;99.30;;;;;;4974312;28;20034;-81
2022/11/28 05:51:17;;;;;;;30.90;21.83;;;7.20;99.30;;;;;;4974207;28;20039;-80
2022/11/28 05:53:43;;;;;;;27.15;21.30;;;7.20;99.30;;;;;;4974216;28;20035;-82
2022/11/28 05:56:12;;;;;;;30.60;22.88;;;7.20;99.30;;;;;;4974074;28;20066;-81
2022/11/28 05:58:38;;;;;;;22.48;17.05;;;7.20;99.30;;;;;;4973985;28;20046;-81
2022/11/28 06:01:30;;;;;;;20.70;17.15;;;7.30;99.30;;;;;;4957831;28;20039;-81
2022/11/28 06:03:59;;;;;;;24.80;18.08;;;7.30;99.30;;;;;;4955942;28;20054;-82
2022/11/28 06:06:33;;;;;;;21.10;15.82;;;7.30;99.30;;;;;;4973903;28;20049;-81
2022/11/28 06:08:59;;;;;;;21.90;15.30;;;7.30;99.30;;;;;;4957607;28;20054;-81
2022/11/28 06:11:27;;;;;;;22.85;15.98;;;7.30;99.40;;;;;;4957857;28;20137;-81
2022/11/28 06:13:53;;;;;;;22.98;17.38;;;7.30;99.40;;;;;;4957949;28;20042;-80
2022/11/28 06:16:25;;;;;;;21.00;14.95;;;7.30;99.40;;;;;;4974020;28;20411;-81
2022/11/28 06:19:11;;;;;;;22.65;16.15;;;7.30;99.40;;;;;;4973714;28;20517;-81
2022/11/28 06:21:37;;;;;;;23.55;15.90;;;7.30;99.40;;;;;;4973524;28;20046;-82
2022/11/28 06:24:02;;;;;;;22.50;15.45;;;7.40;99.40;;;;;;4957858;28;20038;-80
2022/11/28 06:26:28;;;;;;;20.17;14.02;;;7.40;99.40;;;;;;4957417;28;20443;-83
2022/11/28 06:28:54;;;;;;;18.38;13.80;;;7.40;99.30;;;;;;4973527;28;20057;-83
2022/11/28 06:31:22;;;;;;;26.98;15.48;;;7.40;99.30;;;;;;4958020;28;20621;-82
2022/11/28 06:33:48;;;;;;;22.77;15.13;;;7.50;99.30;;;;;;4973602;28;20086;-81
2022/11/28 06:36:17;;;;;;;18.23;13.43;;;7.50;99.30;;;;;;4957320;28;20042;-81
2022/11/28 06:38:42;;;;;;;25.02;17.10;;;7.50;99.40;;;;;;4973380;28;20046;-80
2022/11/28 06:41:11;;;;;;;22.08;15.50;;;7.50;99.40;;;;;;4973561;28;20105;-82
2022/11/28 06:43:37;;;;;;;21.40;14.27;;;7.50;99.40;;;;;;4973327;28;20039;-81
2022/11/28 06:46:03;;;;;;;19.58;14.57;;;7.50;99.50;;;;;;4957218;28;20042;-81
2022/11/28 06:48:28;;;;;;;18.85;13.65;;;7.60;99.50;;;;;;4957094;28;20399;-80
2022/11/28 06:51:05;;;;;;;22.38;15.00;;;7.60;99.50;;;;;;4941568;28;20030;-80
2022/11/28 06:53:32;;;;;;;20.88;13.93;;;7.60;99.50;;;;;;4975935;28;20077;-80
2022/11/28 06:56:06;;;;;;;19.25;13.48;;;7.60;99.60;;;;;;4983224;28;20420;-80
2022/11/28 06:58:32;;;;;;;;;;;7.60;99.50;;;;;;4992282;28;20039;-81
2022/11/28 07:01:05;;;;;;;19.40;13.82;;;7.60;99.50;;;;;;4992442;28;20117;-81
2022/11/28 07:03:31;;;;;;;18.65;13.88;;;7.60;99.50;;;;;;4976669;28;20410;-82
2022/11/28 07:06:00;;;;;;;21.98;14.75;;;7.60;99.50;;;;;;4960247;28;20041;-82
2022/11/28 07:08:26;;;;;;;20.42;14.45;;;7.60;99.50;;;;;;4992346;28;20038;-82
2022/11/28 07:10:52;;;;;;;21.00;15.30;;;7.60;99.60;;;;;;4960115;28;20046;-81
2022/11/28 07:13:17;;;;;;;21.70;15.13;;;7.60;99.60;;;;;;4976514;28;20050;-81
2022/11/28 07:15:50;;;;;;;22.08;15.38;;;7.60;99.50;;;;;;4976413;28;20050;-81
2022/11/28 07:18:16;;;;;;;20.10;14.27;;;7.60;99.60;;;;;;4992327;28;20048;-80
2022/11/28 07:20:42;;;;;;;24.08;15.85;;;7.60;99.60;;;;;;4992300;28;20044;-81
2022/11/28 07:23:07;;;;;;;22.83;15.40;;;7.70;99.70;;;;;;4992230;28;20406;-80
2022/11/28 07:25:33;;;;;;;22.40;15.98;;;7.60;99.70;;;;;;4992190;28;20038;-80
2022/11/28 07:27:59;;;;;;;31.65;17.60;;;7.70;99.70;;;;;;4992357;28;20042;-80
2022/11/28 07:30:25;;;;;;;25.88;15.90;;;7.70;99.70;;;;;;4992309;28;20125;-82
2022/11/28 07:32:51;;;;;;;22.40;15.90;;;7.60;99.70;;;;;;4992291;28;20038;-82
2022/11/28 07:35:17;;;;;;;27.17;17.08;;;7.70;99.60;;;;;;4952947;28;20053;-80
2022/11/28 07:37:42;;;;;;;23.08;15.40;;;7.70;99.60;;;;;;4942909;28;20056;-79
2022/11/28 07:40:08;;;;;;;25.38;15.85;;;7.70;99.60;;;;;;4966797;28;20497;-81
2022/11/28 07:42:34;;;;;;;25.52;16.30;;;7.70;99.60;;;;;;4958949;28;20050;-80
2022/11/28 07:45:00;;;;;;;29.23;18.02;;;7.70;99.70;;;;;;4979440;28;20791;-79
2022/11/28 07:47:25;;;;;;;27.20;15.63;;;7.70;99.70;;;;;;4983588;28;20035;-80
2022/11/28 07:49:51;;;;;;;26.92;17.30;;;7.70;99.70;;;;;;4949232;28;20061;-82
2022/11/28 07:52:17;;;;;;;28.05;17.25;;;7.70;99.60;;;;;;4978863;28;20050;-79
2022/11/28 07:54:43;;;;;;;27.98;17.35;;;7.70;99.60;;;;;;4966112;28;20046;-78
2022/11/28 07:57:08;;;;;;;29.45;18.15;;;7.70;99.70;;;;;;4978732;28;20072;-81
2022/11/28 07:59:34;;;;;;;28.35;17.05;;;7.70;99.70;;;;;;4972070;28;20057;-81
2022/11/28 08:02:00;;;;;;;26.95;16.65;;;7.80;99.80;;;;;;4970343;28;20455;-79
2022/11/28 08:04:25;;;;;;;26.00;16.33;;;7.70;99.70;;;;;;4947719;28;20068;-82
2022/11/28 08:06:51;;;;;;;30.20;17.98;;;7.80;99.80;;;;;;4980477;28;20038;-79
2022/11/28 08:09:17;;;;;;;32.42;18.40;;;7.80;99.80;;;;;;4974446;28;20195;-78
2022/11/28 08:11:42;;;;;;;33.45;17.98;;;7.70;99.80;;;;;;4983153;28;20058;-79
2022/11/28 08:14:08;;;;;;;33.58;19.75;;;7.80;99.80;;;;;;4992123;28;20412;-80
2022/11/28 08:16:35;;;;;;;30.85;19.17;;;7.80;99.80;;;;;;4978202;28;20042;-82
2022/11/28 08:19:02;;;;;;;28.45;18.48;;;7.80;99.80;;;;;;4979356;28;20050;-82
2022/11/28 08:21:30;;;;;;;34.78;19.45;;;7.80;99.80;;;;;;4983731;28;20097;-81
2022/11/28 08:23:58;;;;;;;34.33;20.35;;;7.80;99.80;;;;;;4983758;28;20133;-79
2022/11/28 08:26:25;;;;;;;32.00;19.70;;;7.80;99.90;;;;;;4985796;28;20062;-79
2022/11/28 08:28:52;;;;;;;39.40;24.65;;;7.80;99.90;;;;;;4980583;28;20495;-78
2022/11/28 08:31:27;;;;;;;37.85;21.95;;;7.90;99.90;;;;;;4978065;28;20057;-79
2022/11/28 08:33:54;;;;;;;38.47;22.42;;;7.90;99.80;;;;;;4994410;28;20073;-79
2022/11/28 08:36:21;;;;;;;38.83;22.05;;;7.90;99.70;;;;;;4979780;28;20455;-78
2022/11/28 08:38:48;;;;;;;50.60;24.77;;;8.00;99.70;;;;;;4982087;28;20793;-79
2022/11/28 08:41:16;;;;;;;50.13;25.15;;;8.00;99.80;;;;;;4983111;28;20050;-79
2022/11/28 08:43:42;;;;;;;49.85;24.45;;;8.00;99.70;;;;;;4983909;28;20663;-78
2022/11/28 08:46:13;;;;;;;45.60;24.13;;;8.00;99.80;;;;;;4979401;28;20049;-78
2022/11/28 08:48:40;;;;;;;56.25;27.95;;;8.00;99.80;;;;;;4982156;28;20152;-78
2022/11/28 08:51:08;;;;;;;60.60;27.35;;;8.00;99.80;;;;;;4978963;28;20185;-79
2022/11/28 08:53:34;;;;;;;58.78;28.58;;;8.10;99.80;;;;;;4982948;28;20575;-78
2022/11/28 08:55:59;;;;;;;61.63;28.30;;;8.10;99.90;;;;;;4982294;28;20133;-79
2022/11/28 08:58:25;;;;;;;56.40;27.55;;;8.10;99.80;;;;;;4981756;28;20041;-79
2022/11/28 09:00:51;;;;;;;62.08;29.35;;;8.10;99.80;;;;;;4969081;28;20471;-79
2022/11/28 09:03:18;;;;;;;65.95;29.33;;;8.10;99.80;;;;;;4981166;28;20629;-78
2022/11/28 09:05:45;;;;;;;63.38;29.83;;;8.10;99.80;;;;;;5002184;28;20142;-79
2022/11/28 09:08:12;;;;;;;60.45;27.65;;;8.20;99.80;;;;;;4981308;28;20081;-80
2022/11/28 09:10:40;;;;;;;55.55;26.55;;;8.20;99.80;;;;;;4981285;28;20125;-79
2022/11/28 09:13:07;;;;;;;59.17;28.80;;;8.20;99.80;;;;;;4979597;28;20050;-78
2022/11/28 09:15:34;;;;;;;56.30;26.25;;;8.20;99.80;;;;;;4982054;28;20042;-78
2022/11/28 09:17:59;;;;;;;63.63;29.48;;;8.30;99.80;;;;;;4975411;28;20081;-78
2022/11/28 09:20:25;;;;;;;59.83;27.48;;;8.20;99.80;;;;;;4966448;28;20074;-78
2022/11/28 09:22:51;;;;;;;64.93;31.15;;;8.10;99.70;;;;;;4981507;28;20092;-79
2022/11/28 09:25:17;;;;;;;57.10;28.20;;;8.20;99.70;;;;;;4969788;28;20046;-78
2022/11/28 09:27:42;;;;;;;62.65;29.80;;;8.20;99.70;;;;;;4979923;28;20116;-78
2022/11/28 09:30:08;;;;;;;63.88;29.67;;;8.20;99.70;;;;;;4960747;28;20047;-78
2022/11/28 09:32:34;;;;;;;65.18;29.48;;;8.20;99.70;;;;;;4981236;28;20053;-79
2022/11/28 09:35:00;;;;;;;59.20;28.75;;;8.10;99.70;;;;;;4980701;28;20038;-78
2022/11/28 09:37:27;;;;;;;54.38;28.83;;;8.20;99.70;;;;;;4983747;28;20050;-79
2022/11/28 09:39:53;;;;;;;53.20;27.88;;;8.20;99.70;;;;;;4978785;28;20053;-79
2022/11/28 09:42:30;;;;;;;60.95;28.58;;;8.20;99.80;;;;;;4979078;28;20484;-79
2022/11/28 09:44:59;;;;;;;56.05;28.60;;;8.20;99.80;;;;;;4982361;28;20061;-78
2022/11/28 09:47:27;;;;;;;54.47;28.77;;;8.20;99.70;;;;;;4982522;28;20419;-78
2022/11/28 09:50:02;;;;;;;52.60;29.23;;;8.20;99.70;;;;;;4988700;28;20042;-79
2022/11/28 09:52:36;;;;;;;55.42;27.60;;;8.20;99.60;;;;;;4980885;28;20065;-78
2022/11/28 09:55:11;;;;;;;;;;;8.20;99.60;;;;;;4983702;28;20101;-78
2022/11/28 09:57:49;;;;;;;47.17;24.65;;;8.20;99.70;;;;;;4980158;28;19936;-79
2022/11/28 10:00:20;;;;;;;48.58;25.80;;;8.20;99.60;;;;;;4979801;28;20158;-79
2022/11/28 10:03:11;;;;;;;42.13;24.23;;;8.20;99.70;;;;;;4981865;28;20054;-79
2022/11/28 10:05:42;;;;;;;50.80;26.40;;;8.30;99.50;;;;;;4975714;28;20054;-79
2022/11/28 10:08:47;;;;;;;46.35;24.33;;;8.30;99.50;;;;;;4981924;28;20042;-78
2022/11/28 10:11:19;;;;;;;45.95;24.13;;;8.30;99.50;;;;;;4959707;28;20058;-78
2022/11/28 10:14:16;;;;;;;50.72;24.98;;;8.30;99.50;;;;;;4980042;28;20406;-77
2022/11/28 10:17:04;;;;;;;41.08;23.77;;;8.30;99.50;;;;;;4974831;28;20380;-80
2022/11/28 10:19:46;;;;;;;42.72;22.30;;;8.20;99.50;;;;;;4981451;28;20068;-78
2022/11/28 10:22:21;;;;;;;45.30;23.83;;;8.30;99.40;;;;;;4984614;28;20398;-77
2022/11/28 10:24:54;;;;;;;40.90;23.00;;;8.30;99.50;;;;;;4987972;28;20058;-76
2022/11/28 10:27:28;;;;;;;40.22;22.95;;;8.30;99.60;;;;;;4984742;28;20062;-78
2022/11/28 10:29:58;;;;;;;39.78;21.42;;;8.30;99.60;;;;;;4986503;28;20042;-80
2022/11/28 10:32:33;;;;;;;40.72;21.75;;;8.30;99.60;;;;;;4987914;28;20046;-79
2022/11/28 10:35:28;;;;;;;40.67;21.92;;;8.30;99.60;;;;;;4986250;28;20129;-78
2022/11/28 10:37:53;;;;;;;;;;;8.30;99.60;;;;;;4969697;28;20050;-79
2022/11/28 10:40:42;;;;;;;38.38;20.35;;;8.30;99.70;;;;;;4984304;28;20005;-79
2022/11/28 10:43:33;;;;;;;42.13;21.33;;;8.30;99.70;;;;;;4997430;28;20050;-80
2022/11/28 10:46:20;;;;;;;49.28;24.48;;;8.30;99.60;;;;;;4981242;28;20122;-79
2022/11/28 10:49:07;;;;;;;48.13;25.13;;;8.40;99.60;;;;;;4988949;28;20070;-81
2022/11/28 10:51:43;;;;;;;58.08;28.83;;;8.40;99.60;;;;;;4993155;28;20053;-81
2022/11/28 10:54:40;;;;;;;50.20;25.50;;;8.30;99.60;;;;;;4975482;28;20046;-80
2022/11/28 10:57:14;;;;;;;45.90;22.67;;;8.40;99.60;;;;;;4987886;28;20515;-80
2022/11/28 10:59:59;;;;;;;49.70;23.92;;;8.40;99.70;;;;;;4992340;28;20046;-80
2022/11/28 11:02:48;;;;;;;45.70;22.33;;;8.40;99.60;;;;;;4976318;28;20045;-80
2022/11/28 11:05:20;;;;;;;47.72;21.50;;;8.40;99.70;;;;;;4992794;28;20398;-80
2022/11/28 11:08:22;;;;;;;49.75;23.77;;;8.40;99.70;;;;;;4992550;28;20049;-80
2022/11/28 11:10:51;;;;;;;53.10;23.88;;;8.50;99.70;;;;;;4985456;28;20108;-81
2022/11/28 11:13:26;;;;;;;54.85;24.90;;;8.50;99.60;;;;;;4976178;28;20162;-80
2022/11/28 11:15:59;;;;;;;54.58;25.15;;;8.50;99.60;;;;;;4992769;28;20494;-80
2022/11/28 11:18:33;;;;;;;62.75;28.05;;;8.50;99.60;;;;;;4992419;28;20050;-81
2022/11/28 11:21:22;;;;;;;60.80;27.38;;;8.50;99.60;;;;;;4992381;28;20495;-80
2022/11/28 11:23:49;;;;;;;75.38;30.92;;;8.50;99.50;;;;;;4992440;28;20042;-79
2022/11/28 11:26:28;;;;;;;74.00;30.23;;;8.40;99.50;;;;;;4960259;28;20042;-79
2022/11/28 11:28:55;;;;;;;81.18;31.88;;;8.50;99.50;;;;;;4992298;28;20042;-80
2022/11/28 11:31:28;;;;;;;75.60;30.48;;;8.50;99.60;;;;;;4976077;28;20077;-80
2022/11/28 11:34:06;;;;;;;72.45;28.98;;;8.50;99.60;;;;;;4992149;28;20078;-80
2022/11/28 11:36:34;;;;;;;77.40;28.92;;;8.40;99.70;;;;;;4992223;28;20045;-80
2022/11/28 11:39:11;;;;;;;81.15;29.98;;;8.40;99.70;;;;;;4976438;28;20042;-80
2022/11/28 11:41:40;;;;;;;79.75;29.67;;;8.40;99.60;;;;;;4975816;28;20038;-80
2022/11/28 11:44:19;;;;;;;69.32;28.42;;;8.40;99.70;;;;;;4992393;28;20088;-80
2022/11/28 11:46:54;;;;;;;69.82;28.60;;;8.40;99.70;;;;;;4995852;28;20042;-80
2022/11/28 11:49:35;;;;;;;67.82;29.92;;;8.40;99.70;;;;;;4980204;28;20121;-81
2022/11/28 11:52:12;;;;;;;81.72;32.03;;;8.40;99.70;;;;;;4995847;28;20034;-80
2022/11/28 11:55:24;;;;;;;66.40;28.83;;;8.50;99.60;;;;;;4995914;28;20042;-80
2022/11/28 11:57:52;;;;;;;75.88;29.42;;;8.50;99.70;;;;;;4992877;28;20401;-80
2022/11/28 12:00:20;;;;;;;63.95;27.67;;;8.40;99.70;;;;;;4979941;28;20379;-80
2022/11/28 12:02:53;;;;;;;62.08;28.38;;;8.50;99.70;;;;;;4995541;28;20125;-79
2022/11/28 12:05:49;;;;;;;74.50;29.83;;;8.40;99.70;;;;;;4995732;28;20045;-80
2022/11/28 12:08:23;;;;;;;72.15;30.17;;;8.50;99.70;;;;;;4995788;28;20673;-80
2022/11/28 12:11:01;;;;;;;71.22;29.15;;;8.50;99.60;;;;;;4995486;28;20058;-80
2022/11/28 12:13:26;;;;;;;66.95;28.88;;;8.50;99.50;;;;;;4979399;28;20058;-80
2022/11/28 12:16:11;;;;;;;80.85;29.17;;;8.50;99.60;;;;;;4979475;28;20375;-79
2022/11/28 12:18:55;;;;;;;;;;;8.50;99.60;;;;;;4995628;28;20089;-79
2022/11/28 12:21:42;;;;;;;72.32;27.02;;;8.60;99.70;;;;;;4995177;28;20005;-79
2022/11/28 12:24:15;;;;;;;76.00;29.63;;;8.60;99.70;;;;;;4979152;28;20080;-79
2022/11/28 12:27:05;;;;;;;89.70;33.40;;;8.60;99.70;;;;;;4995246;28;20491;-80
2022/11/28 12:29:48;;;;;;;77.07;31.10;;;8.60;99.60;;;;;;4995293;28;20034;-80
2022/11/28 12:32:42;;;;;;;93.43;31.33;;;8.60;99.70;;;;;;4995098;28;20125;-80
2022/11/28 12:35:36;;;;;;;86.32;31.92;;;8.60;99.70;;;;;;4972097;28;20050;-80
2022/11/28 12:38:04;;;;;;;84.38;34.17;;;8.60;99.70;;;;;;4995271;28;20445;-79
2022/11/28 12:41:00;;;;;;;81.20;31.35;;;8.60;99.70;;;;;;4978846;28;20038;-81
2022/11/28 12:43:45;;;;;;;86.30;30.25;;;8.60;99.60;;;;;;4994781;28;20053;-80
2022/11/28 12:46:52;;;;;;;70.78;30.45;;;8.60;99.60;;;;;;4995146;28;20551;-80
2022/11/28 12:49:24;;;;;;;76.35;31.73;;;8.70;99.60;;;;;;4943895;28;20051;-80
2022/11/28 12:52:19;;;;;;;78.60;28.85;;;8.60;99.60;;;;;;4978570;28;20516;-80
2022/11/28 12:54:54;;;;;;;74.05;29.63;;;8.60;99.60;;;;;;4978624;28;20047;-80
2022/11/28 12:57:42;;;;;;;75.32;30.08;;;8.60;99.60;;;;;;4993790;28;20124;-80
2022/11/28 13:00:23;;;;;;;80.90;32.08;;;8.70;99.60;;;;;;4994735;28;20042;-81
2022/11/28 13:03:02;;;;;;;82.30;30.48;;;8.60;99.60;;;;;;4994570;28;20042;-80
2022/11/28 13:05:28;;;;;;;83.13;31.38;;;8.70;99.60;;;;;;4978562;28;20041;-81
2022/11/28 13:08:24;;;;;;;77.82;31.40;;;8.70;99.60;;;;;;4978223;28;20398;-80